sensor_id;sensor_type;location;lat;lon;timestamp;P1;durP1;ratioP1;P2;durP2;ratioP2
44137;SDS011;29800;55.942;37.314;2023-03-21T00:01:58;6.95;;;3.80;;
44137;SDS011;29800;55.942;37.314;2023-03-21T00:04:25;6.28;;;3.92;;
44137;SDS011;29800;55.942;37.314;2023-03-21T00:06:52;7.82;;;3.65;;
44137;SDS011;29800;55.942;37.314;2023-03-21T00:09:19;10.20;;;4.22;;
44137;SDS011;29800;55.942;37.314;2023-03-21T00:11:45;8.27;;;4.35;;
44137;SDS011;29800;55.942;37.314;2023-03-21T00:14:13;11.50;;;4.40;;
44137;SDS011;29800;55.942;37.314;2023-03-21T00:16:45;9.32;;;4.15;;
44137;SDS011;29800;55.942;37.314;2023-03-21T00:19:15;7.97;;;3.85;;
44137;SDS011;29800;55.942;37.314;2023-03-21T00:21:43;12.88;;;4.53;;
44137;SDS011;29800;55.942;37.314;2023-03-21T00:24:10;9.80;;;3.97;;
44137;SDS011;29800;55.942;37.314;2023-03-21T00:26:36;10.38;;;4.13;;
44137;SDS011;29800;55.942;37.314;2023-03-21T00:29:03;9.48;;;4.53;;
44137;SDS011;29800;55.942;37.314;2023-03-21T00:31:29;8.68;;;3.92;;
44137;SDS011;29800;55.942;37.314;2023-03-21T00:33:55;6.82;;;3.92;;
44137;SDS011;29800;55.942;37.314;2023-03-21T00:36:22;11.13;;;3.75;;
44137;SDS011;29800;55.942;37.314;2023-03-21T00:38:50;9.85;;;4.30;;
44137;SDS011;29800;55.942;37.314;2023-03-21T00:41:16;7.03;;;4.07;;
44137;SDS011;29800;55.942;37.314;2023-03-21T00:43:43;7.13;;;3.55;;
44137;SDS011;29800;55.942;37.314;2023-03-21T00:46:09;6.78;;;3.83;;
44137;SDS011;29800;55.942;37.314;2023-03-21T00:48:35;7.53;;;3.63;;
44137;SDS011;29800;55.942;37.314;2023-03-21T00:51:01;8.05;;;4.25;;
44137;SDS011;29800;55.942;37.314;2023-03-21T00:53:37;15.80;;;4.50;;
44137;SDS011;29800;55.942;37.314;2023-03-21T00:56:03;8.35;;;3.95;;
44137;SDS011;29800;55.942;37.314;2023-03-21T00:58:30;7.60;;;3.83;;
44137;SDS011;29800;55.942;37.314;2023-03-21T01:00:56;9.85;;;4.03;;
44137;SDS011;29800;55.942;37.314;2023-03-21T01:03:22;7.55;;;4.18;;
44137;SDS011;29800;55.942;37.314;2023-03-21T01:05:51;9.25;;;4.30;;
44137;SDS011;29800;55.942;37.314;2023-03-21T01:08:30;10.48;;;4.20;;
44137;SDS011;29800;55.942;37.314;2023-03-21T01:11:05;8.18;;;4.10;;
44137;SDS011;29800;55.942;37.314;2023-03-21T01:13:33;8.82;;;4.15;;
44137;SDS011;29800;55.942;37.314;2023-03-21T01:16:00;7.70;;;4.13;;
44137;SDS011;29800;55.942;37.314;2023-03-21T01:18:28;11.63;;;4.25;;
44137;SDS011;29800;55.942;37.314;2023-03-21T01:20:56;9.02;;;3.80;;
44137;SDS011;29800;55.942;37.314;2023-03-21T01:23:24;9.77;;;4.18;;
44137;SDS011;29800;55.942;37.314;2023-03-21T01:25:52;8.07;;;4.50;;
44137;SDS011;29800;55.942;37.314;2023-03-21T01:28:20;7.78;;;3.72;;
44137;SDS011;29800;55.942;37.314;2023-03-21T01:30:50;6.45;;;4.07;;
44137;SDS011;29800;55.942;37.314;2023-03-21T01:33:17;7.15;;;4.00;;
44137;SDS011;29800;55.942;37.314;2023-03-21T01:35:44;9.40;;;4.10;;
44137;SDS011;29800;55.942;37.314;2023-03-21T01:38:11;7.25;;;4.20;;
44137;SDS011;29800;55.942;37.314;2023-03-21T01:40:43;8.30;;;4.05;;
44137;SDS011;29800;55.942;37.314;2023-03-21T01:43:40;7.97;;;4.45;;
44137;SDS011;29800;55.942;37.314;2023-03-21T01:49:34;8.48;;;4.00;;
44137;SDS011;29800;55.942;37.314;2023-03-21T01:52:33;11.93;;;4.38;;
44137;SDS011;29800;55.942;37.314;2023-03-21T01:55:05;7.65;;;4.50;;
44137;SDS011;29800;55.942;37.314;2023-03-21T01:57:51;10.52;;;4.70;;
44137;SDS011;29800;55.942;37.314;2023-03-21T02:00:21;13.73;;;4.13;;
44137;SDS011;29800;55.942;37.314;2023-03-21T02:03:06;7.38;;;4.22;;
44137;SDS011;29800;55.942;37.314;2023-03-21T02:05:59;9.38;;;4.30;;
44137;SDS011;29800;55.942;37.314;2023-03-21T02:08:41;8.75;;;3.80;;
44137;SDS011;29800;55.942;37.314;2023-03-21T02:11:11;9.80;;;4.40;;
44137;SDS011;29800;55.942;37.314;2023-03-21T02:13:41;8.77;;;4.20;;
44137;SDS011;29800;55.942;37.314;2023-03-21T02:16:13;9.70;;;4.50;;
44137;SDS011;29800;55.942;37.314;2023-03-21T02:24:26;8.80;;;4.05;;
44137;SDS011;29800;55.942;37.314;2023-03-21T02:27:22;8.95;;;4.43;;
44137;SDS011;29800;55.942;37.314;2023-03-21T02:38:41;9.43;;;4.68;;
44137;SDS011;29800;55.942;37.314;2023-03-21T02:41:39;10.13;;;4.60;;
44137;SDS011;29800;55.942;37.314;2023-03-21T02:47:38;10.15;;;4.53;;
44137;SDS011;29800;55.942;37.314;2023-03-21T02:50:14;12.18;;;5.05;;
44137;SDS011;29800;55.942;37.314;2023-03-21T02:52:52;12.48;;;4.82;;
44137;SDS011;29800;55.942;37.314;2023-03-21T02:55:21;10.00;;;5.22;;
44137;SDS011;29800;55.942;37.314;2023-03-21T02:57:56;10.20;;;4.97;;
44137;SDS011;29800;55.942;37.314;2023-03-21T03:00:28;13.25;;;7.03;;
44137;SDS011;29800;55.942;37.314;2023-03-21T03:02:58;11.30;;;5.80;;
44137;SDS011;29800;55.942;37.314;2023-03-21T03:05:26;12.32;;;5.40;;
44137;SDS011;29800;55.942;37.314;2023-03-21T03:11:02;10.48;;;5.28;;
44137;SDS011;29800;55.942;37.314;2023-03-21T03:13:37;8.68;;;4.88;;
44137;SDS011;29800;55.942;37.314;2023-03-21T03:16:36;9.27;;;5.20;;
44137;SDS011;29800;55.942;37.314;2023-03-21T03:19:09;10.68;;;5.00;;
44137;SDS011;29800;55.942;37.314;2023-03-21T03:21:41;11.85;;;4.95;;
44137;SDS011;29800;55.942;37.314;2023-03-21T03:24:16;7.78;;;4.63;;
44137;SDS011;29800;55.942;37.314;2023-03-21T03:26:50;8.77;;;4.45;;
44137;SDS011;29800;55.942;37.314;2023-03-21T03:31:59;8.55;;;4.13;;
44137;SDS011;29800;55.942;37.314;2023-03-21T03:34:41;12.70;;;4.85;;
44137;SDS011;29800;55.942;37.314;2023-03-21T03:37:12;14.02;;;4.30;;
44137;SDS011;29800;55.942;37.314;2023-03-21T03:42:16;6.50;;;3.72;;
44137;SDS011;29800;55.942;37.314;2023-03-21T03:44:51;9.68;;;4.18;;
44137;SDS011;29800;55.942;37.314;2023-03-21T03:47:23;7.93;;;4.55;;
44137;SDS011;29800;55.942;37.314;2023-03-21T03:52:51;10.40;;;4.15;;
44137;SDS011;29800;55.942;37.314;2023-03-21T03:55:25;10.23;;;4.43;;
44137;SDS011;29800;55.942;37.314;2023-03-21T03:57:55;8.57;;;4.95;;
44137;SDS011;29800;55.942;37.314;2023-03-21T04:00:25;10.30;;;4.88;;
44137;SDS011;29800;55.942;37.314;2023-03-21T04:02:53;11.32;;;5.15;;
44137;SDS011;29800;55.942;37.314;2023-03-21T04:05:22;11.25;;;5.38;;
44137;SDS011;29800;55.942;37.314;2023-03-21T04:07:49;9.27;;;5.03;;
44137;SDS011;29800;55.942;37.314;2023-03-21T04:10:17;9.07;;;5.20;;
44137;SDS011;29800;55.942;37.314;2023-03-21T04:12:45;8.73;;;4.88;;
44137;SDS011;29800;55.942;37.314;2023-03-21T04:15:37;8.68;;;4.85;;
44137;SDS011;29800;55.942;37.314;2023-03-21T04:18:11;11.35;;;5.72;;
44137;SDS011;29800;55.942;37.314;2023-03-21T04:20:38;10.10;;;4.97;;
44137;SDS011;29800;55.942;37.314;2023-03-21T04:23:05;10.07;;;4.97;;
44137;SDS011;29800;55.942;37.314;2023-03-21T04:25:36;10.68;;;5.38;;
44137;SDS011;29800;55.942;37.314;2023-03-21T04:28:03;8.35;;;4.93;;
44137;SDS011;29800;55.942;37.314;2023-03-21T04:30:48;10.25;;;5.10;;
44137;SDS011;29800;55.942;37.314;2023-03-21T04:33:18;8.40;;;4.70;;
44137;SDS011;29800;55.942;37.314;2023-03-21T04:35:54;10.20;;;4.90;;
44137;SDS011;29800;55.942;37.314;2023-03-21T04:38:22;9.50;;;4.65;;
44137;SDS011;29800;55.942;37.314;2023-03-21T04:45:51;9.93;;;4.63;;
44137;SDS011;29800;55.942;37.314;2023-03-21T04:48:17;10.02;;;4.55;;
44137;SDS011;29800;55.942;37.314;2023-03-21T04:50:44;9.52;;;4.88;;
44137;SDS011;29800;55.942;37.314;2023-03-21T04:53:11;9.57;;;4.47;;
44137;SDS011;29800;55.942;37.314;2023-03-21T04:55:38;7.82;;;4.88;;
44137;SDS011;29800;55.942;37.314;2023-03-21T04:58:04;10.15;;;4.90;;
44137;SDS011;29800;55.942;37.314;2023-03-21T05:00:31;11.27;;;5.13;;
44137;SDS011;29800;55.942;37.314;2023-03-21T05:03:03;8.13;;;4.60;;
44137;SDS011;29800;55.942;37.314;2023-03-21T05:05:36;9.63;;;4.72;;
44137;SDS011;29800;55.942;37.314;2023-03-21T05:08:04;7.63;;;4.63;;
44137;SDS011;29800;55.942;37.314;2023-03-21T05:10:31;11.20;;;5.35;;
44137;SDS011;29800;55.942;37.314;2023-03-21T05:12:57;8.75;;;4.90;;
44137;SDS011;29800;55.942;37.314;2023-03-21T05:15:26;9.73;;;4.97;;
44137;SDS011;29800;55.942;37.314;2023-03-21T05:17:52;8.07;;;4.97;;
44137;SDS011;29800;55.942;37.314;2023-03-21T05:20:19;11.57;;;4.70;;
44137;SDS011;29800;55.942;37.314;2023-03-21T05:22:46;14.25;;;5.25;;
44137;SDS011;29800;55.942;37.314;2023-03-21T05:25:15;8.32;;;5.18;;
44137;SDS011;29800;55.942;37.314;2023-03-21T05:28:05;9.40;;;4.68;;
44137;SDS011;29800;55.942;37.314;2023-03-21T05:30:32;10.90;;;5.18;;
44137;SDS011;29800;55.942;37.314;2023-03-21T05:33:00;9.80;;;5.68;;
44137;SDS011;29800;55.942;37.314;2023-03-21T05:35:27;12.30;;;5.63;;
44137;SDS011;29800;55.942;37.314;2023-03-21T05:37:57;10.95;;;5.55;;
44137;SDS011;29800;55.942;37.314;2023-03-21T05:40:25;11.32;;;5.70;;
44137;SDS011;29800;55.942;37.314;2023-03-21T05:42:55;10.02;;;5.75;;
44137;SDS011;29800;55.942;37.314;2023-03-21T05:45:24;8.77;;;4.88;;
44137;SDS011;29800;55.942;37.314;2023-03-21T05:47:50;9.20;;;5.35;;
44137;SDS011;29800;55.942;37.314;2023-03-21T05:50:18;13.68;;;5.28;;
44137;SDS011;29800;55.942;37.314;2023-03-21T05:52:54;9.73;;;5.43;;
44137;SDS011;29800;55.942;37.314;2023-03-21T05:55:21;9.68;;;5.55;;
44137;SDS011;29800;55.942;37.314;2023-03-21T05:57:47;10.50;;;5.30;;
44137;SDS011;29800;55.942;37.314;2023-03-21T06:00:22;7.70;;;4.57;;
44137;SDS011;29800;55.942;37.314;2023-03-21T06:03:05;9.95;;;5.28;;
44137;SDS011;29800;55.942;37.314;2023-03-21T06:08:22;8.50;;;5.93;;
44137;SDS011;29800;55.942;37.314;2023-03-21T06:10:49;9.00;;;5.80;;
44137;SDS011;29800;55.942;37.314;2023-03-21T06:13:16;10.07;;;5.72;;
44137;SDS011;29800;55.942;37.314;2023-03-21T06:15:42;10.70;;;6.30;;
44137;SDS011;29800;55.942;37.314;2023-03-21T06:18:14;14.35;;;7.68;;
44137;SDS011;29800;55.942;37.314;2023-03-21T06:20:51;10.27;;;6.00;;
44137;SDS011;29800;55.942;37.314;2023-03-21T06:23:19;13.32;;;5.95;;
44137;SDS011;29800;55.942;37.314;2023-03-21T06:25:46;11.38;;;5.53;;
44137;SDS011;29800;55.942;37.314;2023-03-21T06:28:14;7.60;;;5.22;;
44137;SDS011;29800;55.942;37.314;2023-03-21T06:30:40;13.77;;;8.48;;
44137;SDS011;29800;55.942;37.314;2023-03-21T06:33:18;10.95;;;7.32;;
44137;SDS011;29800;55.942;37.314;2023-03-21T06:35:49;14.50;;;6.75;;
44137;SDS011;29800;55.942;37.314;2023-03-21T06:38:19;10.97;;;5.73;;
44137;SDS011;29800;55.942;37.314;2023-03-21T06:40:46;11.43;;;5.60;;
44137;SDS011;29800;55.942;37.314;2023-03-21T06:43:13;8.63;;;5.00;;
44137;SDS011;29800;55.942;37.314;2023-03-21T06:45:41;10.93;;;5.50;;
44137;SDS011;29800;55.942;37.314;2023-03-21T06:48:10;11.82;;;5.82;;
44137;SDS011;29800;55.942;37.314;2023-03-21T06:50:43;9.50;;;5.75;;
44137;SDS011;29800;55.942;37.314;2023-03-21T06:53:14;8.65;;;6.07;;
44137;SDS011;29800;55.942;37.314;2023-03-21T06:56:10;12.82;;;6.30;;
44137;SDS011;29800;55.942;37.314;2023-03-21T06:58:39;11.52;;;6.57;;
44137;SDS011;29800;55.942;37.314;2023-03-21T07:01:11;11.45;;;6.15;;
44137;SDS011;29800;55.942;37.314;2023-03-21T07:03:50;12.88;;;6.57;;
44137;SDS011;29800;55.942;37.314;2023-03-21T07:06:20;11.32;;;6.25;;
44137;SDS011;29800;55.942;37.314;2023-03-21T07:08:47;11.05;;;6.05;;
44137;SDS011;29800;55.942;37.314;2023-03-21T07:11:14;9.27;;;5.90;;
44137;SDS011;29800;55.942;37.314;2023-03-21T07:13:41;9.30;;;5.50;;
44137;SDS011;29800;55.942;37.314;2023-03-21T07:16:07;8.90;;;5.53;;
44137;SDS011;29800;55.942;37.314;2023-03-21T07:18:34;8.63;;;5.70;;
44137;SDS011;29800;55.942;37.314;2023-03-21T07:21:01;8.85;;;5.38;;
44137;SDS011;29800;55.942;37.314;2023-03-21T07:23:28;9.82;;;5.60;;
44137;SDS011;29800;55.942;37.314;2023-03-21T07:25:54;10.27;;;5.57;;
44137;SDS011;29800;55.942;37.314;2023-03-21T07:28:21;6.68;;;4.75;;
44137;SDS011;29800;55.942;37.314;2023-03-21T07:30:53;10.02;;;5.53;;
44137;SDS011;29800;55.942;37.314;2023-03-21T07:33:22;8.82;;;5.63;;
44137;SDS011;29800;55.942;37.314;2023-03-21T07:35:49;7.63;;;5.10;;
44137;SDS011;29800;55.942;37.314;2023-03-21T07:38:17;8.38;;;5.72;;
44137;SDS011;29800;55.942;37.314;2023-03-21T07:40:45;9.13;;;5.20;;
44137;SDS011;29800;55.942;37.314;2023-03-21T07:43:12;10.75;;;4.85;;
44137;SDS011;29800;55.942;37.314;2023-03-21T07:45:42;7.50;;;4.75;;
44137;SDS011;29800;55.942;37.314;2023-03-21T07:48:09;9.32;;;4.60;;
44137;SDS011;29800;55.942;37.314;2023-03-21T07:50:38;7.28;;;4.50;;
44137;SDS011;29800;55.942;37.314;2023-03-21T07:53:06;7.07;;;4.20;;
44137;SDS011;29800;55.942;37.314;2023-03-21T07:55:32;6.40;;;4.22;;
44137;SDS011;29800;55.942;37.314;2023-03-21T07:58:00;6.32;;;3.90;;
44137;SDS011;29800;55.942;37.314;2023-03-21T08:00:29;6.70;;;4.10;;
44137;SDS011;29800;55.942;37.314;2023-03-21T08:02:56;7.47;;;4.18;;
44137;SDS011;29800;55.942;37.314;2023-03-21T08:05:23;6.22;;;4.20;;
44137;SDS011;29800;55.942;37.314;2023-03-21T08:07:55;7.68;;;4.05;;
44137;SDS011;29800;55.942;37.314;2023-03-21T08:10:22;6.47;;;3.88;;
44137;SDS011;29800;55.942;37.314;2023-03-21T08:12:48;6.50;;;3.90;;
44137;SDS011;29800;55.942;37.314;2023-03-21T08:15:14;6.47;;;3.80;;
44137;SDS011;29800;55.942;37.314;2023-03-21T08:17:41;5.15;;;3.72;;
44137;SDS011;29800;55.942;37.314;2023-03-21T08:20:11;6.32;;;3.88;;
44137;SDS011;29800;55.942;37.314;2023-03-21T08:22:41;7.50;;;4.53;;
44137;SDS011;29800;55.942;37.314;2023-03-21T08:25:09;6.78;;;3.95;;
44137;SDS011;29800;55.942;37.314;2023-03-21T08:27:43;5.68;;;3.50;;
44137;SDS011;29800;55.942;37.314;2023-03-21T08:30:10;5.47;;;3.45;;
44137;SDS011;29800;55.942;37.314;2023-03-21T08:32:40;6.10;;;3.58;;
44137;SDS011;29800;55.942;37.314;2023-03-21T08:35:07;5.95;;;3.67;;
44137;SDS011;29800;55.942;37.314;2023-03-21T08:37:36;7.10;;;3.90;;
44137;SDS011;29800;55.942;37.314;2023-03-21T08:40:04;4.50;;;3.40;;
44137;SDS011;29800;55.942;37.314;2023-03-21T08:42:39;5.53;;;3.22;;
44137;SDS011;29800;55.942;37.314;2023-03-21T08:45:06;5.47;;;3.10;;
44137;SDS011;29800;55.942;37.314;2023-03-21T08:47:34;5.75;;;3.25;;
44137;SDS011;29800;55.942;37.314;2023-03-21T08:50:00;4.90;;;3.10;;
44137;SDS011;29800;55.942;37.314;2023-03-21T08:52:29;3.92;;;2.80;;
44137;SDS011;29800;55.942;37.314;2023-03-21T08:54:55;3.95;;;2.90;;
44137;SDS011;29800;55.942;37.314;2023-03-21T08:57:21;6.05;;;3.78;;
44137;SDS011;29800;55.942;37.314;2023-03-21T08:59:47;5.80;;;3.30;;
44137;SDS011;29800;55.942;37.314;2023-03-21T09:02:14;4.85;;;3.33;;
44137;SDS011;29800;55.942;37.314;2023-03-21T09:04:42;5.13;;;3.45;;
44137;SDS011;29800;55.942;37.314;2023-03-21T09:07:09;5.20;;;3.33;;
44137;SDS011;29800;55.942;37.314;2023-03-21T09:09:37;4.93;;;3.60;;
44137;SDS011;29800;55.942;37.314;2023-03-21T09:12:06;8.50;;;3.90;;
44137;SDS011;29800;55.942;37.314;2023-03-21T09:14:32;4.75;;;3.20;;
44137;SDS011;29800;55.942;37.314;2023-03-21T09:16:59;5.97;;;3.30;;
44137;SDS011;29800;55.942;37.314;2023-03-21T09:19:26;5.82;;;3.38;;
44137;SDS011;29800;55.942;37.314;2023-03-21T09:21:52;5.28;;;3.47;;
44137;SDS011;29800;55.942;37.314;2023-03-21T09:24:20;6.32;;;3.70;;
44137;SDS011;29800;55.942;37.314;2023-03-21T09:26:49;7.00;;;3.30;;
44137;SDS011;29800;55.942;37.314;2023-03-21T09:29:16;6.47;;;3.50;;
44137;SDS011;29800;55.942;37.314;2023-03-21T09:31:45;4.78;;;3.45;;
44137;SDS011;29800;55.942;37.314;2023-03-21T09:34:12;8.35;;;3.60;;
44137;SDS011;29800;55.942;37.314;2023-03-21T09:36:41;4.20;;;2.80;;
44137;SDS011;29800;55.942;37.314;2023-03-21T09:39:13;5.65;;;3.20;;
44137;SDS011;29800;55.942;37.314;2023-03-21T09:41:49;5.40;;;3.45;;
44137;SDS011;29800;55.942;37.314;2023-03-21T09:44:33;6.07;;;3.58;;
44137;SDS011;29800;55.942;37.314;2023-03-21T09:47:30;5.47;;;2.85;;
44137;SDS011;29800;55.942;37.314;2023-03-21T09:50:15;7.53;;;3.78;;
44137;SDS011;29800;55.942;37.314;2023-03-21T09:53:31;5.28;;;3.22;;
44137;SDS011;29800;55.942;37.314;2023-03-21T09:55:58;7.47;;;3.40;;
44137;SDS011;29800;55.942;37.314;2023-03-21T09:58:34;5.85;;;3.40;;
44137;SDS011;29800;55.942;37.314;2023-03-21T10:01:09;4.32;;;3.00;;
44137;SDS011;29800;55.942;37.314;2023-03-21T10:04:07;4.82;;;3.10;;
44137;SDS011;29800;55.942;37.314;2023-03-21T10:06:38;5.43;;;3.47;;
44137;SDS011;29800;55.942;37.314;2023-03-21T10:09:10;4.45;;;2.60;;
44137;SDS011;29800;55.942;37.314;2023-03-21T10:11:46;4.30;;;2.85;;
44137;SDS011;29800;55.942;37.314;2023-03-21T10:20:16;4.75;;;2.90;;
44137;SDS011;29800;55.942;37.314;2023-03-21T10:22:48;4.22;;;2.60;;
44137;SDS011;29800;55.942;37.314;2023-03-21T10:25:51;3.80;;;2.40;;
44137;SDS011;29800;55.942;37.314;2023-03-21T10:28:19;5.03;;;2.58;;
44137;SDS011;29800;55.942;37.314;2023-03-21T10:33:26;4.22;;;2.33;;
44137;SDS011;29800;55.942;37.314;2023-03-21T10:35:58;3.72;;;2.47;;
44137;SDS011;29800;55.942;37.314;2023-03-21T10:38:26;4.75;;;2.63;;
44137;SDS011;29800;55.942;37.314;2023-03-21T10:40:55;5.35;;;2.45;;
44137;SDS011;29800;55.942;37.314;2023-03-21T10:45:51;3.47;;;2.35;;
44137;SDS011;29800;55.942;37.314;2023-03-21T10:48:17;6.55;;;2.35;;
44137;SDS011;29800;55.942;37.314;2023-03-21T10:50:45;3.92;;;2.20;;
44137;SDS011;29800;55.942;37.314;2023-03-21T10:53:16;5.90;;;2.38;;
44137;SDS011;29800;55.942;37.314;2023-03-21T10:55:49;4.18;;;2.13;;
44137;SDS011;29800;55.942;37.314;2023-03-21T10:58:19;3.65;;;2.40;;
44137;SDS011;29800;55.942;37.314;2023-03-21T11:00:55;5.00;;;2.20;;
44137;SDS011;29800;55.942;37.314;2023-03-21T11:03:26;3.55;;;2.20;;
44137;SDS011;29800;55.942;37.314;2023-03-21T11:05:58;5.63;;;2.90;;
44137;SDS011;29800;55.942;37.314;2023-03-21T11:08:34;5.15;;;2.80;;
44137;SDS011;29800;55.942;37.314;2023-03-21T11:11:05;5.50;;;2.25;;
44137;SDS011;29800;55.942;37.314;2023-03-21T11:18:43;3.78;;;2.20;;
44137;SDS011;29800;55.942;37.314;2023-03-21T11:21:14;4.40;;;2.28;;
44137;SDS011;29800;55.942;37.314;2023-03-21T11:23:43;3.47;;;2.20;;
44137;SDS011;29800;55.942;37.314;2023-03-21T11:26:28;2.95;;;2.00;;
44137;SDS011;29800;55.942;37.314;2023-03-21T11:28:58;3.95;;;2.38;;
44137;SDS011;29800;55.942;37.314;2023-03-21T11:31:40;4.28;;;2.38;;
44137;SDS011;29800;55.942;37.314;2023-03-21T11:34:07;3.90;;;2.05;;
44137;SDS011;29800;55.942;37.314;2023-03-21T11:36:35;4.95;;;2.28;;
44137;SDS011;29800;55.942;37.314;2023-03-21T11:41:59;4.53;;;2.10;;
44137;SDS011;29800;55.942;37.314;2023-03-21T11:44:30;5.82;;;2.00;;
44137;SDS011;29800;55.942;37.314;2023-03-21T11:46:58;3.60;;;2.00;;
44137;SDS011;29800;55.942;37.314;2023-03-21T11:49:25;3.53;;;1.92;;
44137;SDS011;29800;55.942;37.314;2023-03-21T11:51:57;4.70;;;2.78;;
44137;SDS011;29800;55.942;37.314;2023-03-21T11:54:37;3.75;;;2.28;;
44137;SDS011;29800;55.942;37.314;2023-03-21T12:00:19;4.03;;;2.22;;
44137;SDS011;29800;55.942;37.314;2023-03-21T12:05:58;2.92;;;2.00;;
44137;SDS011;29800;55.942;37.314;2023-03-21T12:11:16;3.80;;;1.98;;
44137;SDS011;29800;55.942;37.314;2023-03-21T12:14:05;3.75;;;1.90;;
44137;SDS011;29800;55.942;37.314;2023-03-21T12:35:49;3.67;;;1.80;;
44137;SDS011;29800;55.942;37.314;2023-03-21T12:44:14;7.70;;;2.50;;
44137;SDS011;29800;55.942;37.314;2023-03-21T12:46:46;3.70;;;2.22;;
44137;SDS011;29800;55.942;37.314;2023-03-21T12:49:29;3.97;;;1.60;;
44137;SDS011;29800;55.942;37.314;2023-03-21T12:54:50;3.92;;;2.03;;
44137;SDS011;29800;55.942;37.314;2023-03-21T13:02:43;3.40;;;2.00;;
44137;SDS011;29800;55.942;37.314;2023-03-21T13:07:45;4.30;;;1.98;;
44137;SDS011;29800;55.942;37.314;2023-03-21T13:10:16;6.63;;;2.00;;
44137;SDS011;29800;55.942;37.314;2023-03-21T13:27:00;4.15;;;2.15;;
44137;SDS011;29800;55.942;37.314;2023-03-21T13:29:50;4.40;;;2.50;;
44137;SDS011;29800;55.942;37.314;2023-03-21T13:32:27;3.60;;;2.25;;
44137;SDS011;29800;55.942;37.314;2023-03-21T13:34:57;3.20;;;1.95;;
44137;SDS011;29800;55.942;37.314;2023-03-21T13:37:28;4.68;;;2.47;;
44137;SDS011;29800;55.942;37.314;2023-03-21T13:40:00;3.85;;;2.15;;
44137;SDS011;29800;55.942;37.314;2023-03-21T13:42:42;3.75;;;2.05;;
44137;SDS011;29800;55.942;37.314;2023-03-21T13:45:20;3.65;;;1.90;;
44137;SDS011;29800;55.942;37.314;2023-03-21T13:50:22;4.32;;;2.13;;
44137;SDS011;29800;55.942;37.314;2023-03-21T13:55:42;5.50;;;2.03;;
44137;SDS011;29800;55.942;37.314;2023-03-21T13:58:23;6.15;;;2.00;;
44137;SDS011;29800;55.942;37.314;2023-03-21T14:01:14;5.07;;;2.25;;
44137;SDS011;29800;55.942;37.314;2023-03-21T14:03:43;4.18;;;2.13;;
44137;SDS011;29800;55.942;37.314;2023-03-21T14:06:11;4.43;;;1.90;;
44137;SDS011;29800;55.942;37.314;2023-03-21T14:08:39;4.57;;;2.17;;
44137;SDS011;29800;55.942;37.314;2023-03-21T14:11:11;3.72;;;2.13;;
44137;SDS011;29800;55.942;37.314;2023-03-21T14:13:42;4.50;;;2.10;;
44137;SDS011;29800;55.942;37.314;2023-03-21T14:16:11;3.83;;;2.10;;
44137;SDS011;29800;55.942;37.314;2023-03-21T14:18:45;5.50;;;2.28;;
44137;SDS011;29800;55.942;37.314;2023-03-21T14:21:31;5.40;;;2.15;;
44137;SDS011;29800;55.942;37.314;2023-03-21T14:24:03;3.75;;;2.10;;
44137;SDS011;29800;55.942;37.314;2023-03-21T14:26:35;3.92;;;2.13;;
44137;SDS011;29800;55.942;37.314;2023-03-21T14:29:06;3.60;;;1.95;;
44137;SDS011;29800;55.942;37.314;2023-03-21T14:31:46;3.25;;;1.90;;
44137;SDS011;29800;55.942;37.314;2023-03-21T14:34:12;4.63;;;2.13;;
44137;SDS011;29800;55.942;37.314;2023-03-21T14:36:41;3.90;;;1.90;;
44137;SDS011;29800;55.942;37.314;2023-03-21T14:39:16;3.35;;;1.98;;
44137;SDS011;29800;55.942;37.314;2023-03-21T14:41:49;4.38;;;1.90;;
44137;SDS011;29800;55.942;37.314;2023-03-21T14:44:31;3.97;;;1.90;;
44137;SDS011;29800;55.942;37.314;2023-03-21T14:47:23;4.50;;;2.50;;
44137;SDS011;29800;55.942;37.314;2023-03-21T14:49:49;3.85;;;2.20;;
44137;SDS011;29800;55.942;37.314;2023-03-21T14:52:19;4.80;;;2.15;;
44137;SDS011;29800;55.942;37.314;2023-03-21T14:54:50;5.18;;;2.13;;
44137;SDS011;29800;55.942;37.314;2023-03-21T14:57:18;3.63;;;1.90;;
44137;SDS011;29800;55.942;37.314;2023-03-21T14:59:49;3.38;;;1.92;;
44137;SDS011;29800;55.942;37.314;2023-03-21T15:04:51;4.90;;;2.00;;
44137;SDS011;29800;55.942;37.314;2023-03-21T15:07:28;2.83;;;1.50;;
44137;SDS011;29800;55.942;37.314;2023-03-21T15:09:58;4.85;;;2.05;;
44137;SDS011;29800;55.942;37.314;2023-03-21T15:12:31;3.83;;;1.63;;
44137;SDS011;29800;55.942;37.314;2023-03-21T15:14:58;4.00;;;2.08;;
44137;SDS011;29800;55.942;37.314;2023-03-21T15:17:26;4.63;;;2.15;;
44137;SDS011;29800;55.942;37.314;2023-03-21T15:19:53;4.70;;;1.98;;
44137;SDS011;29800;55.942;37.314;2023-03-21T15:22:33;3.30;;;1.98;;
44137;SDS011;29800;55.942;37.314;2023-03-21T15:25:06;6.80;;;2.10;;
44137;SDS011;29800;55.942;37.314;2023-03-21T15:27:39;6.03;;;2.85;;
44137;SDS011;29800;55.942;37.314;2023-03-21T15:30:06;5.00;;;2.72;;
44137;SDS011;29800;55.942;37.314;2023-03-21T15:32:44;5.82;;;2.50;;
44137;SDS011;29800;55.942;37.314;2023-03-21T15:35:15;4.32;;;2.15;;
44137;SDS011;29800;55.942;37.314;2023-03-21T15:37:57;5.07;;;2.10;;
44137;SDS011;29800;55.942;37.314;2023-03-21T15:40:26;6.38;;;2.40;;
44137;SDS011;29800;55.942;37.314;2023-03-21T15:43:03;4.13;;;2.55;;
44137;SDS011;29800;55.942;37.314;2023-03-21T15:45:54;4.72;;;2.30;;
44137;SDS011;29800;55.942;37.314;2023-03-21T15:48:28;3.88;;;2.50;;
44137;SDS011;29800;55.942;37.314;2023-03-21T15:51:03;5.32;;;2.72;;
44137;SDS011;29800;55.942;37.314;2023-03-21T15:53:33;5.95;;;3.40;;
44137;SDS011;29800;55.942;37.314;2023-03-21T15:56:01;7.60;;;3.70;;
44137;SDS011;29800;55.942;37.314;2023-03-21T15:58:33;7.10;;;3.60;;
44137;SDS011;29800;55.942;37.314;2023-03-21T16:01:05;6.13;;;3.10;;
44137;SDS011;29800;55.942;37.314;2023-03-21T16:03:40;5.55;;;3.15;;
44137;SDS011;29800;55.942;37.314;2023-03-21T16:08:43;5.68;;;2.65;;
44137;SDS011;29800;55.942;37.314;2023-03-21T16:11:25;5.80;;;2.60;;
44137;SDS011;29800;55.942;37.314;2023-03-21T16:13:53;5.55;;;2.60;;
44137;SDS011;29800;55.942;37.314;2023-03-21T16:16:24;4.20;;;2.33;;
44137;SDS011;29800;55.942;37.314;2023-03-21T16:18:52;7.07;;;3.05;;
44137;SDS011;29800;55.942;37.314;2023-03-21T16:21:20;6.25;;;2.20;;
44137;SDS011;29800;55.942;37.314;2023-03-21T16:23:49;4.20;;;2.53;;
44137;SDS011;29800;55.942;37.314;2023-03-21T16:26:16;6.70;;;2.80;;
44137;SDS011;29800;55.942;37.314;2023-03-21T16:28:46;6.70;;;2.95;;
44137;SDS011;29800;55.942;37.314;2023-03-21T16:31:14;5.18;;;3.15;;
44137;SDS011;29800;55.942;37.314;2023-03-21T16:33:42;5.43;;;3.15;;
44137;SDS011;29800;55.942;37.314;2023-03-21T16:36:26;5.88;;;3.40;;
44137;SDS011;29800;55.942;37.314;2023-03-21T16:38:56;6.25;;;3.47;;
44137;SDS011;29800;55.942;37.314;2023-03-21T16:41:24;5.97;;;3.17;;
44137;SDS011;29800;55.942;37.314;2023-03-21T16:43:52;5.72;;;3.20;;
44137;SDS011;29800;55.942;37.314;2023-03-21T16:46:19;6.72;;;3.60;;
44137;SDS011;29800;55.942;37.314;2023-03-21T16:48:53;7.40;;;4.10;;
44137;SDS011;29800;55.942;37.314;2023-03-21T16:51:29;8.55;;;4.50;;
44137;SDS011;29800;55.942;37.314;2023-03-21T16:54:00;9.45;;;5.00;;
44137;SDS011;29800;55.942;37.314;2023-03-21T16:56:33;8.93;;;5.53;;
44137;SDS011;29800;55.942;37.314;2023-03-21T16:59:06;10.88;;;6.03;;
44137;SDS011;29800;55.942;37.314;2023-03-21T17:01:37;10.30;;;6.50;;
44137;SDS011;29800;55.942;37.314;2023-03-21T17:04:06;12.75;;;7.57;;
44137;SDS011;29800;55.942;37.314;2023-03-21T17:06:35;13.13;;;8.63;;